sensor_id;sensor_type;location;lat;lon;timestamp;P1;durP1;ratioP1;P2;durP2;ratioP2
15383;SDS011;7790;53.022;12.968;2022-12-04T00:02:24;12.17;;;11.03;;
15383;SDS011;7790;53.022;12.968;2022-12-04T00:06:25;12.37;;;11.17;;
15383;SDS011;7790;53.022;12.968;2022-12-04T00:10:26;12.33;;;11.13;;
15383;SDS011;7790;53.022;12.968;2022-12-04T00:14:27;12.03;;;10.83;;
15383;SDS011;7790;53.022;12.968;2022-12-04T00:18:28;11.73;;;10.63;;
15383;SDS011;7790;53.022;12.968;2022-12-04T00:22:30;11.90;;;10.70;;
15383;SDS011;7790;53.022;12.968;2022-12-04T00:26:30;12.37;;;11.17;;
15383;SDS011;7790;53.022;12.968;2022-12-04T00:30:31;11.60;;;10.40;;
15383;SDS011;7790;53.022;12.968;2022-12-04T00:34:32;12.20;;;11.00;;
15383;SDS011;7790;53.022;12.968;2022-12-04T00:38:33;11.27;;;10.17;;
15383;SDS011;7790;53.022;12.968;2022-12-04T00:42:35;12.00;;;10.77;;
15383;SDS011;7790;53.022;12.968;2022-12-04T00:46:36;11.57;;;10.47;;
15383;SDS011;7790;53.022;12.968;2022-12-04T00:50:37;11.30;;;10.13;;
15383;SDS011;7790;53.022;12.968;2022-12-04T00:54:38;11.90;;;10.80;;
15383;SDS011;7790;53.022;12.968;2022-12-04T00:58:39;11.83;;;10.63;;
15383;SDS011;7790;53.022;12.968;2022-12-04T01:02:40;11.30;;;10.20;;
15383;SDS011;7790;53.022;12.968;2022-12-04T01:06:41;12.27;;;11.07;;
15383;SDS011;7790;53.022;12.968;2022-12-04T01:10:42;12.40;;;11.17;;
15383;SDS011;7790;53.022;12.968;2022-12-04T01:14:43;12.10;;;10.90;;
15383;SDS011;7790;53.022;12.968;2022-12-04T01:18:46;11.97;;;10.77;;
15383;SDS011;7790;53.022;12.968;2022-12-04T01:22:47;12.87;;;11.07;;
15383;SDS011;7790;53.022;12.968;2022-12-04T01:26:48;11.83;;;10.70;;
15383;SDS011;7790;53.022;12.968;2022-12-04T01:30:57;11.80;;;10.57;;
15383;SDS011;7790;53.022;12.968;2022-12-04T01:35:06;11.50;;;10.43;;
15383;SDS011;7790;53.022;12.968;2022-12-04T01:39:07;12.10;;;10.80;;
15383;SDS011;7790;53.022;12.968;2022-12-04T01:43:09;12.50;;;11.30;;
15383;SDS011;7790;53.022;12.968;2022-12-04T01:47:12;12.27;;;11.03;;
15383;SDS011;7790;53.022;12.968;2022-12-04T01:51:18;11.40;;;10.30;;
15383;SDS011;7790;53.022;12.968;2022-12-04T01:55:23;11.40;;;10.40;;
15383;SDS011;7790;53.022;12.968;2022-12-04T01:59:27;11.57;;;10.37;;
15383;SDS011;7790;53.022;12.968;2022-12-04T02:03:34;11.53;;;10.43;;
15383;SDS011;7790;53.022;12.968;2022-12-04T02:07:36;11.57;;;10.37;;
15383;SDS011;7790;53.022;12.968;2022-12-04T02:11:49;11.27;;;10.20;;
15383;SDS011;7790;53.022;12.968;2022-12-04T02:16:09;12.40;;;11.17;;
15383;SDS011;7790;53.022;12.968;2022-12-04T02:28:49;12.00;;;10.80;;
15383;SDS011;7790;53.022;12.968;2022-12-04T02:32:55;12.50;;;11.30;;
15383;SDS011;7790;53.022;12.968;2022-12-04T02:37:18;12.57;;;11.37;;
15383;SDS011;7790;53.022;12.968;2022-12-04T02:45:30;11.83;;;10.63;;
15383;SDS011;7790;53.022;12.968;2022-12-04T02:49:59;12.73;;;11.43;;
15383;SDS011;7790;53.022;12.968;2022-12-04T02:54:03;11.83;;;10.73;;
15383;SDS011;7790;53.022;12.968;2022-12-04T02:58:10;12.30;;;11.10;;
15383;SDS011;7790;53.022;12.968;2022-12-04T03:02:22;11.37;;;10.27;;
15383;SDS011;7790;53.022;12.968;2022-12-04T03:06:38;12.07;;;10.87;;
15383;SDS011;7790;53.022;12.968;2022-12-04T03:10:47;12.37;;;11.07;;
15383;SDS011;7790;53.022;12.968;2022-12-04T03:15:02;12.97;;;11.67;;
15383;SDS011;7790;53.022;12.968;2022-12-04T03:19:14;12.47;;;11.20;;
15383;SDS011;7790;53.022;12.968;2022-12-04T03:23:24;12.23;;;11.03;;
15383;SDS011;7790;53.022;12.968;2022-12-04T03:31:55;12.17;;;10.97;;
15383;SDS011;7790;53.022;12.968;2022-12-04T03:36:51;12.50;;;11.30;;
15383;SDS011;7790;53.022;12.968;2022-12-04T03:40:43;11.67;;;10.47;;
15383;SDS011;7790;53.022;12.968;2022-12-04T03:53:56;12.80;;;11.57;;
15383;SDS011;7790;53.022;12.968;2022-12-04T03:57:51;13.40;;;12.10;;
15383;SDS011;7790;53.022;12.968;2022-12-04T04:01:58;13.23;;;11.93;;
15383;SDS011;7790;53.022;12.968;2022-12-04T04:06:04;12.87;;;11.57;;
15383;SDS011;7790;53.022;12.968;2022-12-04T04:10:17;12.93;;;11.63;;
15383;SDS011;7790;53.022;12.968;2022-12-04T04:14:22;12.83;;;11.63;;
15383;SDS011;7790;53.022;12.968;2022-12-04T04:18:45;13.13;;;11.83;;
15383;SDS011;7790;53.022;12.968;2022-12-04T04:23:08;12.60;;;11.40;;
15383;SDS011;7790;53.022;12.968;2022-12-04T04:27:30;12.60;;;11.37;;
15383;SDS011;7790;53.022;12.968;2022-12-04T04:36:02;12.50;;;11.30;;
15383;SDS011;7790;53.022;12.968;2022-12-04T04:44:56;11.70;;;10.60;;
15383;SDS011;7790;53.022;12.968;2022-12-04T04:49:10;12.30;;;11.10;;
15383;SDS011;7790;53.022;12.968;2022-12-04T04:53:14;12.43;;;11.10;;
15383;SDS011;7790;53.022;12.968;2022-12-04T04:57:29;12.10;;;10.90;;
15383;SDS011;7790;53.022;12.968;2022-12-04T05:01:33;12.53;;;11.30;;
15383;SDS011;7790;53.022;12.968;2022-12-04T05:05:34;12.43;;;11.23;;
15383;SDS011;7790;53.022;12.968;2022-12-04T05:09:35;12.80;;;11.50;;
15383;SDS011;7790;53.022;12.968;2022-12-04T05:13:35;12.40;;;11.07;;
15383;SDS011;7790;53.022;12.968;2022-12-04T05:17:36;12.10;;;11.00;;
15383;SDS011;7790;53.022;12.968;2022-12-04T05:21:37;11.87;;;10.77;;
15383;SDS011;7790;53.022;12.968;2022-12-04T05:25:38;12.70;;;11.47;;
15383;SDS011;7790;53.022;12.968;2022-12-04T05:29:39;12.37;;;11.17;;
15383;SDS011;7790;53.022;12.968;2022-12-04T05:33:40;12.20;;;11.10;;
15383;SDS011;7790;53.022;12.968;2022-12-04T05:37:40;12.00;;;10.90;;
15383;SDS011;7790;53.022;12.968;2022-12-04T05:41:41;11.80;;;10.60;;
15383;SDS011;7790;53.022;12.968;2022-12-04T05:45:42;13.10;;;11.73;;
15383;SDS011;7790;53.022;12.968;2022-12-04T05:49:43;11.73;;;10.63;;
15383;SDS011;7790;53.022;12.968;2022-12-04T05:53:44;11.90;;;10.67;;
15383;SDS011;7790;53.022;12.968;2022-12-04T05:57:45;12.73;;;11.50;;
15383;SDS011;7790;53.022;12.968;2022-12-04T06:01:45;11.43;;;10.33;;
15383;SDS011;7790;53.022;12.968;2022-12-04T06:05:46;11.80;;;10.70;;
15383;SDS011;7790;53.022;12.968;2022-12-04T06:09:47;11.63;;;10.53;;
15383;SDS011;7790;53.022;12.968;2022-12-04T06:13:48;12.03;;;10.93;;
15383;SDS011;7790;53.022;12.968;2022-12-04T06:17:49;11.37;;;10.30;;
15383;SDS011;7790;53.022;12.968;2022-12-04T06:21:51;11.50;;;10.40;;
15383;SDS011;7790;53.022;12.968;2022-12-04T06:25:52;11.23;;;10.13;;
15383;SDS011;7790;53.022;12.968;2022-12-04T06:29:53;10.77;;;9.70;;
15383;SDS011;7790;53.022;12.968;2022-12-04T06:33:54;11.23;;;10.13;;
15383;SDS011;7790;53.022;12.968;2022-12-04T06:37:57;11.23;;;10.23;;
15383;SDS011;7790;53.022;12.968;2022-12-04T06:41:57;10.67;;;9.63;;
15383;SDS011;7790;53.022;12.968;2022-12-04T06:46:01;12.03;;;10.90;;
15383;SDS011;7790;53.022;12.968;2022-12-04T06:50:06;11.27;;;10.17;;
15383;SDS011;7790;53.022;12.968;2022-12-04T06:54:08;10.57;;;9.57;;
15383;SDS011;7790;53.022;12.968;2022-12-04T06:58:09;10.97;;;9.97;;
15383;SDS011;7790;53.022;12.968;2022-12-04T07:02:10;10.90;;;9.80;;
15383;SDS011;7790;53.022;12.968;2022-12-04T07:06:15;11.83;;;10.63;;
15383;SDS011;7790;53.022;12.968;2022-12-04T07:10:18;12.00;;;10.80;;
15383;SDS011;7790;53.022;12.968;2022-12-04T07:14:19;11.33;;;10.23;;
15383;SDS011;7790;53.022;12.968;2022-12-04T07:18:20;11.70;;;10.53;;
15383;SDS011;7790;53.022;12.968;2022-12-04T07:22:21;11.10;;;10.00;;
15383;SDS011;7790;53.022;12.968;2022-12-04T07:26:22;12.50;;;10.87;;
15383;SDS011;7790;53.022;12.968;2022-12-04T07:30:24;10.80;;;9.70;;
15383;SDS011;7790;53.022;12.968;2022-12-04T07:34:24;11.20;;;10.10;;
15383;SDS011;7790;53.022;12.968;2022-12-04T07:38:27;11.30;;;10.20;;
15383;SDS011;7790;53.022;12.968;2022-12-04T07:42:29;10.70;;;9.70;;
15383;SDS011;7790;53.022;12.968;2022-12-04T07:46:29;11.33;;;10.13;;
15383;SDS011;7790;53.022;12.968;2022-12-04T07:50:30;14.33;;;11.60;;
15383;SDS011;7790;53.022;12.968;2022-12-04T07:54:31;11.17;;;9.83;;
15383;SDS011;7790;53.022;12.968;2022-12-04T07:58:32;11.43;;;10.33;;
15383;SDS011;7790;53.022;12.968;2022-12-04T08:02:34;12.50;;;11.27;;
15383;SDS011;7790;53.022;12.968;2022-12-04T08:06:35;14.73;;;11.90;;
15383;SDS011;7790;53.022;12.968;2022-12-04T08:10:38;12.03;;;10.80;;
15383;SDS011;7790;53.022;12.968;2022-12-04T08:14:40;13.17;;;11.87;;
15383;SDS011;7790;53.022;12.968;2022-12-04T08:18:40;11.97;;;10.77;;
15383;SDS011;7790;53.022;12.968;2022-12-04T08:22:45;12.70;;;11.33;;
15383;SDS011;7790;53.022;12.968;2022-12-04T08:26:47;11.77;;;10.57;;
15383;SDS011;7790;53.022;12.968;2022-12-04T08:30:48;11.80;;;10.53;;
15383;SDS011;7790;53.022;12.968;2022-12-04T08:34:50;12.20;;;11.07;;
15383;SDS011;7790;53.022;12.968;2022-12-04T08:38:51;11.83;;;10.63;;
15383;SDS011;7790;53.022;12.968;2022-12-04T08:42:52;11.63;;;10.53;;
15383;SDS011;7790;53.022;12.968;2022-12-04T08:46:53;12.70;;;11.37;;
15383;SDS011;7790;53.022;12.968;2022-12-04T08:50:54;14.17;;;11.03;;
15383;SDS011;7790;53.022;12.968;2022-12-04T08:54:55;11.87;;;10.67;;
15383;SDS011;7790;53.022;12.968;2022-12-04T08:58:56;11.23;;;10.03;;
15383;SDS011;7790;53.022;12.968;2022-12-04T09:02:57;11.17;;;10.07;;
15383;SDS011;7790;53.022;12.968;2022-12-04T09:06:58;11.30;;;10.20;;
15383;SDS011;7790;53.022;12.968;2022-12-04T09:11:05;11.77;;;10.67;;
15383;SDS011;7790;53.022;12.968;2022-12-04T09:15:09;11.63;;;10.50;;
15383;SDS011;7790;53.022;12.968;2022-12-04T09:19:10;11.67;;;10.57;;
15383;SDS011;7790;53.022;12.968;2022-12-04T09:23:11;11.53;;;10.37;;
15383;SDS011;7790;53.022;12.968;2022-12-04T09:27:12;11.00;;;9.87;;
15383;SDS011;7790;53.022;12.968;2022-12-04T09:31:13;10.80;;;9.70;;
15383;SDS011;7790;53.022;12.968;2022-12-04T09:35:14;10.93;;;9.80;;
15383;SDS011;7790;53.022;12.968;2022-12-04T09:39:15;12.10;;;10.27;;
15383;SDS011;7790;53.022;12.968;2022-12-04T09:43:23;11.50;;;10.30;;
15383;SDS011;7790;53.022;12.968;2022-12-04T09:47:41;11.57;;;9.93;;
15383;SDS011;7790;53.022;12.968;2022-12-04T09:51:49;12.07;;;10.60;;
15383;SDS011;7790;53.022;12.968;2022-12-04T09:56:00;11.53;;;10.17;;
15383;SDS011;7790;53.022;12.968;2022-12-04T10:00:04;11.83;;;10.30;;
15383;SDS011;7790;53.022;12.968;2022-12-04T10:04:11;11.23;;;10.13;;
15383;SDS011;7790;53.022;12.968;2022-12-04T10:08:23;11.10;;;10.00;;
15383;SDS011;7790;53.022;12.968;2022-12-04T10:26:16;10.47;;;9.47;;
15383;SDS011;7790;53.022;12.968;2022-12-04T10:30:25;10.73;;;9.73;;
15383;SDS011;7790;53.022;12.968;2022-12-04T10:34:28;10.77;;;9.77;;
15383;SDS011;7790;53.022;12.968;2022-12-04T10:38:38;11.93;;;9.83;;
15383;SDS011;7790;53.022;12.968;2022-12-04T10:42:42;11.20;;;9.67;;
15383;SDS011;7790;53.022;12.968;2022-12-04T10:46:58;12.00;;;9.47;;
15383;SDS011;7790;53.022;12.968;2022-12-04T10:51:00;12.13;;;10.23;;
15383;SDS011;7790;53.022;12.968;2022-12-04T10:55:02;11.70;;;10.13;;
15383;SDS011;7790;53.022;12.968;2022-12-04T10:59:03;10.80;;;9.70;;
15383;SDS011;7790;53.022;12.968;2022-12-04T11:03:08;10.80;;;9.70;;
15383;SDS011;7790;53.022;12.968;2022-12-04T11:07:36;11.30;;;9.67;;
15383;SDS011;7790;53.022;12.968;2022-12-04T11:11:46;10.23;;;9.23;;
15383;SDS011;7790;53.022;12.968;2022-12-04T11:15:51;11.67;;;10.47;;
15383;SDS011;7790;53.022;12.968;2022-12-04T11:19:58;15.17;;;11.20;;
15383;SDS011;7790;53.022;12.968;2022-12-04T11:24:03;15.10;;;11.90;;
15383;SDS011;7790;53.022;12.968;2022-12-04T11:28:04;14.63;;;11.17;;
15383;SDS011;7790;53.022;12.968;2022-12-04T11:32:05;14.63;;;11.83;;
15383;SDS011;7790;53.022;12.968;2022-12-04T11:36:22;12.77;;;11.30;;
15383;SDS011;7790;53.022;12.968;2022-12-04T11:40:30;13.10;;;11.20;;
15383;SDS011;7790;53.022;12.968;2022-12-04T11:44:33;12.73;;;11.43;;
15383;SDS011;7790;53.022;12.968;2022-12-04T11:48:42;15.07;;;11.47;;
15383;SDS011;7790;53.022;12.968;2022-12-04T11:53:00;14.27;;;11.57;;
15383;SDS011;7790;53.022;12.968;2022-12-04T12:26:36;11.43;;;10.23;;
15383;SDS011;7790;53.022;12.968;2022-12-04T12:35:23;14.33;;;10.70;;
15383;SDS011;7790;53.022;12.968;2022-12-04T12:39:49;12.77;;;10.57;;
15383;SDS011;7790;53.022;12.968;2022-12-04T12:48:23;12.30;;;10.13;;
15383;SDS011;7790;53.022;12.968;2022-12-04T12:56:40;13.70;;;10.50;;
15383;SDS011;7790;53.022;12.968;2022-12-04T13:00:45;14.33;;;11.47;;
15383;SDS011;7790;53.022;12.968;2022-12-04T13:04:58;12.63;;;10.07;;
15383;SDS011;7790;53.022;12.968;2022-12-04T13:09:09;16.70;;;10.43;;
15383;SDS011;7790;53.022;12.968;2022-12-04T13:13:24;11.20;;;9.43;;
15383;SDS011;7790;53.022;12.968;2022-12-04T13:17:32;12.37;;;9.07;;
15383;SDS011;7790;53.022;12.968;2022-12-04T13:43:24;10.60;;;9.23;;
15383;SDS011;7790;53.022;12.968;2022-12-04T13:47:32;11.33;;;10.10;;
15383;SDS011;7790;53.022;12.968;2022-12-04T13:51:38;12.33;;;9.77;;
15383;SDS011;7790;53.022;12.968;2022-12-04T13:55:40;9.83;;;8.83;;
15383;SDS011;7790;53.022;12.968;2022-12-04T13:59:41;9.87;;;8.87;;
15383;SDS011;7790;53.022;12.968;2022-12-04T14:03:46;10.60;;;9.60;;
15383;SDS011;7790;53.022;12.968;2022-12-04T14:08:24;10.27;;;9.23;;
15383;SDS011;7790;53.022;12.968;2022-12-04T14:12:22;11.13;;;9.93;;
15383;SDS011;7790;53.022;12.968;2022-12-04T14:16:33;10.57;;;9.17;;
15383;SDS011;7790;53.022;12.968;2022-12-04T14:20:39;10.43;;;9.40;;
15383;SDS011;7790;53.022;12.968;2022-12-04T14:24:41;11.33;;;10.23;;
15383;SDS011;7790;53.022;12.968;2022-12-04T14:28:42;10.97;;;9.87;;
15383;SDS011;7790;53.022;12.968;2022-12-04T14:32:44;12.00;;;10.80;;
15383;SDS011;7790;53.022;12.968;2022-12-04T14:36:52;10.23;;;9.23;;
15383;SDS011;7790;53.022;12.968;2022-12-04T14:40:55;11.67;;;9.97;;
15383;SDS011;7790;53.022;12.968;2022-12-04T14:44:58;13.30;;;9.97;;
15383;SDS011;7790;53.022;12.968;2022-12-04T14:49:18;9.97;;;8.97;;
15383;SDS011;7790;53.022;12.968;2022-12-04T14:53:39;10.90;;;9.80;;
15383;SDS011;7790;53.022;12.968;2022-12-04T14:58:03;11.40;;;10.20;;
15383;SDS011;7790;53.022;12.968;2022-12-04T15:02:33;11.30;;;9.90;;
15383;SDS011;7790;53.022;12.968;2022-12-04T15:06:38;13.20;;;9.17;;
15383;SDS011;7790;53.022;12.968;2022-12-04T15:10:40;10.50;;;9.40;;
15383;SDS011;7790;53.022;12.968;2022-12-04T15:15:12;10.27;;;9.27;;
15383;SDS011;7790;53.022;12.968;2022-12-04T15:19:26;9.90;;;9.00;;
15383;SDS011;7790;53.022;12.968;2022-12-04T15:27:34;11.00;;;9.20;;
15383;SDS011;7790;53.022;12.968;2022-12-04T15:31:39;10.17;;;9.17;;
15383;SDS011;7790;53.022;12.968;2022-12-04T15:35:47;10.10;;;9.07;;
15383;SDS011;7790;53.022;12.968;2022-12-04T15:39:59;10.80;;;9.70;;
15383;SDS011;7790;53.022;12.968;2022-12-04T15:48:29;10.17;;;9.17;;
15383;SDS011;7790;53.022;12.968;2022-12-04T15:52:30;10.17;;;9.17;;
15383;SDS011;7790;53.022;12.968;2022-12-04T15:56:31;10.53;;;9.53;;
15383;SDS011;7790;53.022;12.968;2022-12-04T16:00:33;10.33;;;9.33;;
15383;SDS011;7790;53.022;12.968;2022-12-04T16:04:36;11.17;;;10.07;;
15383;SDS011;7790;53.022;12.968;2022-12-04T16:08:37;10.97;;;9.87;;
15383;SDS011;7790;53.022;12.968;2022-12-04T16:12:50;11.20;;;10.10;;
15383;SDS011;7790;53.022;12.968;2022-12-04T16:16:53;10.93;;;9.83;;
15383;SDS011;7790;53.022;12.968;2022-12-04T16:20:56;11.03;;;9.93;;
15383;SDS011;7790;53.022;12.968;2022-12-04T16:24:57;11.50;;;10.30;;
15383;SDS011;7790;53.022;12.968;2022-12-04T16:28:58;11.00;;;9.90;;
15383;SDS011;7790;53.022;12.968;2022-12-04T16:32:58;11.20;;;10.10;;
15383;SDS011;7790;53.022;12.968;2022-12-04T16:36:59;10.27;;;9.27;;
15383;SDS011;7790;53.022;12.968;2022-12-04T16:41:00;10.33;;;9.23;;
15383;SDS011;7790;53.022;12.968;2022-12-04T16:45:07;11.03;;;9.93;;
15383;SDS011;7790;53.022;12.968;2022-12-04T16:49:17;10.27;;;9.27;;
15383;SDS011;7790;53.022;12.968;2022-12-04T16:53:19;9.53;;;8.63;;
15383;SDS011;7790;53.022;12.968;2022-12-04T16:57:21;11.10;;;9.83;;
15383;SDS011;7790;53.022;12.968;2022-12-04T17:01:23;10.63;;;9.33;;
15383;SDS011;7790;53.022;12.968;2022-12-04T17:05:28;10.67;;;9.60;;
15383;SDS011;7790;53.022;12.968;2022-12-04T17:09:31;11.00;;;9.90;;
15383;SDS011;7790;53.022;12.968;2022-12-04T17:13:32;10.80;;;9.70;;
15383;SDS011;7790;53.022;12.968;2022-12-04T17:17:32;10.07;;;9.07;;
15383;SDS011;7790;53.022;12.968;2022-12-04T17:21:33;11.27;;;9.77;;
15383;SDS011;7790;53.022;12.968;2022-12-04T17:25:34;10.80;;;9.70;;
15383;SDS011;7790;53.022;12.968;2022-12-04T17:29:35;10.40;;;9.43;;
15383;SDS011;7790;53.022;12.968;2022-12-04T17:33:36;20.50;;;10.03;;
15383;SDS011;7790;53.022;12.968;2022-12-04T17:37:37;16.90;;;8.97;;
15383;SDS011;7790;53.022;12.968;2022-12-04T17:41:38;11.47;;;9.30;;
15383;SDS011;7790;53.022;12.968;2022-12-04T17:45:39;14.67;;;9.50;;
15383;SDS011;7790;53.022;12.968;2022-12-04T17:49:40;10.60;;;8.70;;
15383;SDS011;7790;53.022;12.968;2022-12-04T17:53:41;11.53;;;9.20;;
15383;SDS011;7790;53.022;12.968;2022-12-04T17:57:42;12.73;;;9.37;;
15383;SDS011;7790;53.022;12.968;2022-12-04T18:01:43;11.20;;;8.83;;
15383;SDS011;7790;53.022;12.968;2022-12-04T18:05:44;13.33;;;9.27;;
15383;SDS011;7790;53.022;12.968;2022-12-04T18:09:45;13.30;;;9.27;;
15383;SDS011;7790;53.022;12.968;2022-12-04T18:13:46;10.43;;;8.50;;
15383;SDS011;7790;53.022;12.968;2022-12-04T18:17:48;10.27;;;9.17;;
15383;SDS011;7790;53.022;12.968;2022-12-04T18:21:49;10.13;;;9.00;;
15383;SDS011;7790;53.022;12.968;2022-12-04T18:25:54;10.13;;;9.07;;
15383;SDS011;7790;53.022;12.968;2022-12-04T18:29:55;9.63;;;8.40;;
15383;SDS011;7790;53.022;12.968;2022-12-04T18:33:56;8.83;;;7.93;;
15383;SDS011;7790;53.022;12.968;2022-12-04T18:37:57;9.73;;;8.63;;
15383;SDS011;7790;53.022;12.968;2022-12-04T18:41:58;9.43;;;8.23;;
15383;SDS011;7790;53.022;12.968;2022-12-04T18:46:00;9.33;;;8.47;;
15383;SDS011;7790;53.022;12.968;2022-12-04T18:50:03;10.17;;;8.43;;
15383;SDS011;7790;53.022;12.968;2022-12-04T18:54:06;9.13;;;8.23;;
15383;SDS011;7790;53.022;12.968;2022-12-04T18:58:10;10.67;;;8.60;;
15383;SDS011;7790;53.022;12.968;2022-12-04T19:02:11;9.43;;;8.50;;
15383;SDS011;7790;53.022;12.968;2022-12-04T19:06:12;8.67;;;7.77;;
15383;SDS011;7790;53.022;12.968;2022-12-04T19:10:13;9.00;;;7.77;;
15383;SDS011;7790;53.022;12.968;2022-12-04T19:14:15;8.67;;;7.80;;
15383;SDS011;7790;53.022;12.968;2022-12-04T19:18:17;10.73;;;8.03;;
15383;SDS011;7790;53.022;12.968;2022-12-04T19:22:18;10.30;;;9.20;;
15383;SDS011;7790;53.022;12.968;2022-12-04T19:26:18;10.07;;;9.00;;
15383;SDS011;7790;53.022;12.968;2022-12-04T19:30:19;9.57;;;8.57;;
15383;SDS011;7790;53.022;12.968;2022-12-04T19:34:20;9.37;;;8.33;;
15383;SDS011;7790;53.022;12.968;2022-12-04T19:38:21;10.37;;;9.27;;
15383;SDS011;7790;53.022;12.968;2022-12-04T19:42:22;11.67;;;9.20;;
15383;SDS011;7790;53.022;12.968;2022-12-04T19:46:23;12.40;;;8.87;;
15383;SDS011;7790;53.022;12.968;2022-12-04T19:50:26;12.13;;;8.83;;
15383;SDS011;7790;53.022;12.968;2022-12-04T19:54:27;10.53;;;8.73;;
15383;SDS011;7790;53.022;12.968;2022-12-04T19:58:29;14.90;;;9.33;;
15383;SDS011;7790;53.022;12.968;2022-12-04T20:02:31;12.37;;;8.67;;
15383;SDS011;7790;53.022;12.968;2022-12-04T20:06:36;10.77;;;9.10;;
15383;SDS011;7790;53.022;12.968;2022-12-04T20:10:40;12.97;;;9.23;;
15383;SDS011;7790;53.022;12.968;2022-12-04T20:14:41;10.20;;;8.53;;
15383;SDS011;7790;53.022;12.968;2022-12-04T20:18:42;13.23;;;9.13;;
15383;SDS011;7790;53.022;12.968;2022-12-04T20:22:43;10.47;;;8.80;;
15383;SDS011;7790;53.022;12.968;2022-12-04T20:26:44;9.83;;;8.83;;
15383;SDS011;7790;53.022;12.968;2022-12-04T20:30:45;12.77;;;9.40;;
15383;SDS011;7790;53.022;12.968;2022-12-04T20:34:46;10.37;;;8.60;;
15383;SDS011;7790;53.022;12.968;2022-12-04T20:38:48;12.00;;;9.27;;
15383;SDS011;7790;53.022;12.968;2022-12-04T20:42:50;11.43;;;9.73;;
15383;SDS011;7790;53.022;12.968;2022-12-04T20:46:51;12.60;;;9.87;;
15383;SDS011;7790;53.022;12.968;2022-12-04T20:50:52;11.70;;;9.90;;
15383;SDS011;7790;53.022;12.968;2022-12-04T20:54:53;12.17;;;9.90;;
15383;SDS011;7790;53.022;12.968;2022-12-04T20:58:59;10.17;;;8.97;;
15383;SDS011;7790;53.022;12.968;2022-12-04T21:03:02;11.50;;;10.07;;
15383;SDS011;7790;53.022;12.968;2022-12-04T21:07:03;11.03;;;9.53;;
15383;SDS011;7790;53.022;12.968;2022-12-04T21:11:04;10.93;;;9.63;;
15383;SDS011;7790;53.022;12.968;2022-12-04T21:15:05;11.17;;;9.93;;
15383;SDS011;7790;53.022;12.968;2022-12-04T21:19:25;10.80;;;9.43;;
15383;SDS011;7790;53.022;12.968;2022-12-04T21:23:26;11.67;;;9.57;;
15383;SDS011;7790;53.022;12.968;2022-12-04T21:27:27;12.13;;;9.97;;
15383;SDS011;7790;53.022;12.968;2022-12-04T21:31:29;11.07;;;9.83;;
15383;SDS011;7790;53.022;12.968;2022-12-04T21:35:30;11.77;;;9.67;;
15383;SDS011;7790;53.022;12.968;2022-12-04T21:39:31;12.17;;;9.60;;
15383;SDS011;7790;53.022;12.968;2022-12-04T21:43:32;10.97;;;9.50;;
15383;SDS011;7790;53.022;12.968;2022-12-04T21:47:34;11.87;;;10.03;;
15383;SDS011;7790;53.022;12.968;2022-12-04T21:51:35;11.93;;;9.37;;
15383;SDS011;7790;53.022;12.968;2022-12-04T21:55:36;11.40;;;9.60;;
15383;SDS011;7790;53.022;12.968;2022-12-04T21:59:37;11.80;;;9.67;;
15383;SDS011;7790;53.022;12.968;2022-12-04T22:03:38;12.30;;;9.73;;
15383;SDS011;7790;53.022;12.968;2022-12-04T22:07:39;11.30;;;9.97;;
15383;SDS011;7790;53.022;12.968;2022-12-04T22:11:40;10.93;;;9.73;;
15383;SDS011;7790;53.022;12.968;2022-12-04T22:15:42;11.83;;;10.07;;
15383;SDS011;7790;53.022;12.968;2022-12-04T22:19:43;10.93;;;9.70;;
15383;SDS011;7790;53.022;12.968;2022-12-04T22:23:44;10.53;;;9.37;;
15383;SDS011;7790;53.022;12.968;2022-12-04T22:27:45;10.87;;;9.77;;
15383;SDS011;7790;53.022;12.968;2022-12-04T22:31:46;11.03;;;9.23;;
15383;SDS011;7790;53.022;12.968;2022-12-04T22:35:47;11.37;;;9.60;;
15383;SDS011;7790;53.022;12.968;2022-12-04T22:39:47;12.33;;;10.00;;
15383;SDS011;7790;53.022;12.968;2022-12-04T22:43:48;11.37;;;10.00;;
15383;SDS011;7790;53.022;12.968;2022-12-04T22:47:49;12.60;;;9.40;;
15383;SDS011;7790;53.022;12.968;2022-12-04T22:51:50;12.17;;;9.80;;
15383;SDS011;7790;53.022;12.968;2022-12-04T22:55:51;14.07;;;10.00;;
15383;SDS011;7790;53.022;12.968;2022-12-04T22:59:51;11.90;;;9.77;;
15383;SDS011;7790;53.022;12.968;2022-12-04T23:03:53;11.87;;;9.63;;
15383;SDS011;7790;53.022;12.968;2022-12-04T23:07:54;15.27;;;9.57;;
15383;SDS011;7790;53.022;12.968;2022-12-04T23:11:55;12.00;;;9.80;;
15383;SDS011;7790;53.022;12.968;2022-12-04T23:15:56;11.37;;;10.07;;
15383;SDS011;7790;53.022;12.968;2022-12-04T23:19:57;11.70;;;9.60;;
15383;SDS011;7790;53.022;12.968;2022-12-04T23:23:58;10.77;;;9.57;;
15383;SDS011;7790;53.022;12.968;2022-12-04T23:27:59;11.87;;;9.03;;
15383;SDS011;7790;53.022;12.968;2022-12-04T23:32:00;11.83;;;9.37;;
15383;SDS011;7790;53.022;12.968;2022-12-04T23:36:01;11.30;;;9.10;;
15383;SDS011;7790;53.022;12.968;2022-12-04T23:40:03;10.77;;;8.83;;
15383;SDS011;7790;53.022;12.968;2022-12-04T23:44:05;9.67;;;8.67;;
15383;SDS011;7790;53.022;12.968;2022-12-04T23:48:05;10.17;;;9.13;;
15383;SDS011;7790;53.022;12.968;2022-12-04T23:52:07;12.40;;;9.53;;
15383;SDS011;7790;53.022;12.968;2022-12-04T23:56:10;10.47;;;8.93;;
